Time;durP1;ratioP1;P1;durP2;ratioP2;P2;SDS_P1;SDS_P2;PMS_P1;PMS_P2;Temp;Humidity;BMP_temperature;BMP_pressure;BME280_temperature;BME280_humidity;BME280_pressure;Samples;Min_cycle;Max_cycle;Signal;HPM_P1;HPM_P2
2023/07/17 00:01:40;;;;;;;4.90;4.40;;;17.40;99.90;;;;;;5052026;28;20823;-70
2023/07/17 00:04:06;;;;;;;5.03;3.93;;;17.40;99.90;;;;;;5051425;28;20210;-70
2023/07/17 00:06:31;;;;;;;6.20;4.70;;;17.30;99.90;;;;;;5051662;28;20213;-71
2023/07/17 00:08:57;;;;;;;6.83;4.50;;;17.30;99.90;;;;;;5051707;28;20200;-70
2023/07/17 00:11:23;;;;;;;4.13;3.70;;;17.20;99.90;;;;;;5052044;28;20257;-71
2023/07/17 00:13:48;;;;;;;4.97;4.20;;;17.30;99.90;;;;;;5051407;28;20269;-71
2023/07/17 00:16:14;;;;;;;4.67;3.73;;;17.20;99.90;;;;;;5051665;28;20233;-71
2023/07/17 00:18:40;;;;;;;4.60;3.80;;;17.30;99.90;;;;;;5052047;28;20177;-71
2023/07/17 00:21:05;;;;;;;4.80;3.93;;;17.30;99.90;;;;;;5051911;28;20231;-71
2023/07/17 00:23:31;;;;;;;5.30;4.30;;;17.30;99.90;;;;;;5051158;28;20646;-71
2023/07/17 00:25:57;;;;;;;5.73;4.20;;;17.40;99.90;;;;;;5051336;28;20248;-71
2023/07/17 00:28:23;;;;;;;5.57;4.63;;;17.50;99.90;;;;;;5051739;28;20423;-71
2023/07/17 00:30:49;;;;;;;5.80;4.30;;;17.60;99.90;;;;;;5051808;28;20416;-71
2023/07/17 00:33:15;;;;;;;5.47;3.77;;;17.80;99.90;;;;;;5051132;28;20619;-71
2023/07/17 00:35:41;;;;;;;5.00;3.33;;;17.80;99.90;;;;;;5051232;28;20409;-71
2023/07/17 00:38:06;;;;;;;6.57;4.20;;;17.90;99.90;;;;;;5050407;28;20210;-71
2023/07/17 00:40:32;;;;;;;5.20;4.10;;;18.00;99.90;;;;;;5051549;28;20213;-71
2023/07/17 00:42:59;;;;;;;4.87;3.23;;;18.10;99.90;;;;;;5050952;28;20552;-72
2023/07/17 00:45:30;;;;;;;3.73;3.27;;;18.20;99.90;;;;;;5051241;28;20905;-72
2023/07/17 00:47:57;;;;;;;4.40;3.60;;;18.20;99.90;;;;;;5051335;28;20460;-71
2023/07/17 00:50:22;;;;;;;8.13;4.47;;;18.30;99.90;;;;;;5049990;28;20462;-71
2023/07/17 00:52:49;;;;;;;4.00;3.57;;;18.30;99.90;;;;;;5050494;28;20416;-72
2023/07/17 00:55:17;;;;;;;6.83;4.10;;;18.40;99.90;;;;;;5050989;28;20182;-72
2023/07/17 00:57:43;;;;;;;4.60;3.33;;;18.50;99.90;;;;;;5050490;28;21108;-71
2023/07/17 01:00:12;;;;;;;6.57;4.37;;;18.60;99.90;;;;;;5051308;28;20408;-71
2023/07/17 01:02:39;;;;;;;5.17;3.43;;;18.60;99.90;;;;;;5050489;28;20189;-71
2023/07/17 01:05:05;;;;;;;5.40;3.70;;;18.60;99.90;;;;;;5050810;28;20507;-71
2023/07/17 01:07:31;;;;;;;6.97;4.53;;;18.70;99.90;;;;;;5050804;28;20464;-71
2023/07/17 01:09:57;;;;;;;5.07;3.80;;;18.70;99.90;;;;;;5051087;28;20450;-71
2023/07/17 01:12:23;;;;;;;4.23;3.07;;;18.60;99.90;;;;;;5050280;28;20423;-71
2023/07/17 01:14:48;;;;;;;5.47;4.00;;;18.50;99.90;;;;;;5050702;28;20265;-71
2023/07/17 01:17:14;;;;;;;4.27;3.30;;;18.40;99.90;;;;;;5050757;28;20202;-71
2023/07/17 01:19:40;;;;;;;5.20;3.30;;;18.20;99.90;;;;;;5050767;28;20611;-71
2023/07/17 01:22:15;;;;;;;4.27;3.87;;;18.10;99.90;;;;;;5050232;28;20185;-71
2023/07/17 01:24:40;;;;;;;6.83;4.27;;;18.00;99.90;;;;;;5048875;28;20184;-71
2023/07/17 01:27:06;;;;;;;5.53;3.80;;;17.90;99.90;;;;;;5050555;28;20467;-72
2023/07/17 01:29:32;;;;;;;6.83;4.07;;;17.90;99.90;;;;;;5068745;28;20216;-71
2023/07/17 01:31:57;;;;;;;5.30;4.23;;;17.90;99.90;;;;;;5070293;28;20264;-71
2023/07/17 01:34:23;;;;;;;5.00;3.70;;;17.90;99.90;;;;;;5070306;28;20692;-71
2023/07/17 01:36:49;;;;;;;3.90;3.53;;;17.90;99.90;;;;;;5070129;28;20200;-71
2023/07/17 01:39:14;;;;;;;4.70;4.23;;;17.90;99.90;;;;;;5070580;28;20184;-71
2023/07/17 01:41:40;;;;;;;4.13;3.13;;;17.80;99.90;;;;;;5070350;28;20264;-71
2023/07/17 01:44:06;;;;;;;4.73;4.20;;;17.80;99.90;;;;;;5069644;28;20184;-71
2023/07/17 01:46:31;;;;;;;6.00;4.10;;;17.80;99.90;;;;;;5069984;28;20689;-71
2023/07/17 01:48:57;;;;;;;4.13;3.40;;;17.90;99.90;;;;;;5070201;28;20170;-71
2023/07/17 01:51:23;;;;;;;5.77;3.97;;;17.90;99.90;;;;;;5070128;28;20187;-71
2023/07/17 01:53:48;;;;;;;5.00;3.57;;;17.90;99.90;;;;;;5069556;28;20173;-71
2023/07/17 01:56:14;;;;;;;4.90;3.47;;;17.90;99.90;;;;;;5069116;28;20193;-71
2023/07/17 01:58:40;;;;;;;4.63;3.47;;;17.80;99.90;;;;;;5060157;28;20840;-71
2023/07/17 02:01:07;;;;;;;5.83;3.70;;;17.80;99.90;;;;;;5049883;28;20650;-71
2023/07/17 02:03:34;;;;;;;5.30;3.70;;;17.80;99.90;;;;;;5049303;28;20224;-71
2023/07/17 02:06:00;;;;;;;5.20;3.00;;;17.80;99.90;;;;;;5049596;28;20790;-71
2023/07/17 02:08:25;;;;;;;6.40;3.27;;;17.70;99.90;;;;;;5048332;28;20436;-71
2023/07/17 02:10:52;;;;;;;4.30;3.40;;;17.70;99.90;;;;;;5049968;28;20499;-71
2023/07/17 02:13:17;;;;;;;3.77;2.80;;;17.70;99.90;;;;;;5049073;28;20182;-71
2023/07/17 02:15:45;;;;;;;5.87;3.77;;;17.70;99.90;;;;;;5048190;28;21078;-71
2023/07/17 02:18:10;;;;;;;4.57;3.03;;;17.60;99.90;;;;;;5049784;28;20591;-71
2023/07/17 02:20:36;;;;;;;5.47;3.30;;;17.60;99.90;;;;;;5049765;28;20412;-71
2023/07/17 02:23:02;;;;;;;5.30;3.50;;;17.60;99.90;;;;;;5045924;28;20189;-71
2023/07/17 02:25:28;;;;;;;4.60;2.90;;;17.70;99.90;;;;;;5048746;28;20190;-71
2023/07/17 02:27:53;;;;;;;4.00;2.90;;;17.50;99.90;;;;;;5049460;28;20205;-71
2023/07/17 02:30:19;;;;;;;4.43;3.00;;;17.60;99.90;;;;;;5049312;28;21133;-71
2023/07/17 02:32:45;;;;;;;4.30;3.00;;;17.50;99.90;;;;;;5048680;28;20387;-71
2023/07/17 02:35:10;;;;;;;3.37;2.93;;;17.50;99.90;;;;;;5049249;28;20193;-70
2023/07/17 02:37:36;;;;;;;4.03;2.47;;;17.50;99.90;;;;;;5049182;28;20284;-71
2023/07/17 02:40:12;;;;;;;5.30;3.00;;;17.50;99.90;;;;;;5049349;28;20192;-71
2023/07/17 02:42:38;;;;;;;4.80;3.17;;;17.50;99.90;;;;;;5047269;28;20199;-71
2023/07/17 02:45:07;;;;;;;3.80;2.90;;;17.60;99.90;;;;;;5048893;28;20448;-71
2023/07/17 02:47:32;;;;;;;3.97;2.80;;;17.50;99.90;;;;;;5049047;28;20475;-71
2023/07/17 02:49:58;;;;;;;3.70;2.60;;;17.50;99.90;;;;;;5049058;28;20408;-71
2023/07/17 02:52:24;;;;;;;2.93;2.30;;;17.40;99.90;;;;;;5048582;28;20486;-71
2023/07/17 02:54:49;;;;;;;3.60;2.17;;;17.30;99.90;;;;;;5048671;28;20201;-71
2023/07/17 02:57:16;;;;;;;5.53;2.53;;;17.20;99.90;;;;;;5048521;28;20284;-71
2023/07/17 02:59:42;;;;;;;4.40;3.00;;;17.30;99.90;;;;;;5048913;28;20667;-71
2023/07/17 03:02:08;;;;;;;3.00;2.20;;;17.30;99.90;;;;;;5048330;28;20538;-71
2023/07/17 03:04:34;;;;;;;2.60;1.97;;;17.20;99.90;;;;;;5048765;28;20507;-71
2023/07/17 03:06:59;;;;;;;3.77;2.17;;;17.20;99.90;;;;;;5048564;28;20613;-70
2023/07/17 03:09:26;;;;;;;3.00;2.67;;;17.20;99.90;;;;;;5048779;28;20185;-70
2023/07/17 03:11:52;;;;;;;4.63;2.47;;;17.10;99.90;;;;;;5048827;28;20259;-70
2023/07/17 03:14:18;;;;;;;5.40;2.37;;;17.10;99.90;;;;;;5047446;28;20467;-71
2023/07/17 03:16:43;;;;;;;3.57;2.20;;;17.10;99.90;;;;;;5048616;28;20194;-71
2023/07/17 03:19:09;;;;;;;4.23;2.27;;;17.10;99.90;;;;;;5048405;28;20538;-71
2023/07/17 03:21:35;;;;;;;8.50;2.43;;;17.10;99.90;;;;;;5048565;28;20264;-71
2023/07/17 03:24:01;;;;;;;2.90;2.23;;;17.10;99.90;;;;;;5047999;28;20565;-70
2023/07/17 03:26:27;;;;;;;2.47;2.20;;;17.10;99.90;;;;;;5048228;28;20745;-71
2023/07/17 03:28:53;;;;;;;3.80;2.50;;;17.00;99.90;;;;;;5048527;28;20209;-70
2023/07/17 03:31:19;;;;;;;4.17;2.63;;;16.90;99.90;;;;;;5048745;28;20286;-70
2023/07/17 03:33:44;;;;;;;5.13;2.20;;;16.90;99.90;;;;;;5046698;28;20912;-71
2023/07/17 03:36:10;;;;;;;3.37;2.50;;;16.90;99.90;;;;;;5048166;28;20280;-71
2023/07/17 03:38:36;;;;;;;2.13;1.77;;;16.80;99.90;;;;;;5048442;28;20780;-71
2023/07/17 03:41:02;;;;;;;4.53;2.23;;;16.90;99.90;;;;;;5051148;28;20372;-71
2023/07/17 03:43:28;;;;;;;2.50;2.03;;;16.90;99.90;;;;;;5047599;28;20654;-71
2023/07/17 03:45:53;;;;;;;4.73;2.53;;;16.80;99.90;;;;;;5047993;28;20516;-71
2023/07/17 03:48:19;;;;;;;3.00;2.07;;;16.80;99.90;;;;;;5048387;28;20673;-71
2023/07/17 03:50:47;;;;;;;2.60;2.20;;;16.70;99.90;;;;;;5048592;28;20265;-71
2023/07/17 03:53:13;;;;;;;2.13;1.97;;;16.70;99.90;;;;;;5046590;28;20201;-71
2023/07/17 03:55:39;;;;;;;3.90;2.70;;;16.70;99.90;;;;;;5047369;28;20448;-71
2023/07/17 03:58:07;;;;;;;2.40;1.80;;;16.70;99.90;;;;;;5048682;28;20667;-71
2023/07/17 04:00:33;;;;;;;4.77;2.37;;;16.70;99.90;;;;;;5048241;28;20470;-71
2023/07/17 04:02:59;;;;;;;3.67;2.40;;;16.70;99.90;;;;;;5047889;28;20412;-71
2023/07/17 04:05:24;;;;;;;4.30;2.40;;;16.60;99.90;;;;;;5046660;28;20417;-71
2023/07/17 04:07:51;;;;;;;5.10;2.40;;;16.60;99.90;;;;;;5046934;28;20217;-71
2023/07/17 04:10:17;;;;;;;3.33;2.60;;;16.70;99.90;;;;;;5048185;28;20231;-71
2023/07/17 04:12:42;;;;;;;4.80;2.23;;;16.70;99.90;;;;;;5047746;28;20769;-71
2023/07/17 04:15:09;;;;;;;4.00;2.33;;;16.70;99.90;;;;;;5047939;28;20201;-71
2023/07/17 04:17:35;;;;;;;5.93;2.20;;;16.80;99.90;;;;;;5048116;28;20436;-71
2023/07/17 04:20:00;;;;;;;2.57;1.80;;;16.70;99.90;;;;;;5048075;28;20428;-71
2023/07/17 04:22:26;;;;;;;4.20;2.27;;;16.70;99.90;;;;;;5046394;28;20182;-71
2023/07/17 04:24:52;;;;;;;4.53;2.50;;;16.70;99.90;;;;;;5048875;28;20240;-71
2023/07/17 04:27:17;;;;;;;2.47;2.27;;;16.60;99.90;;;;;;5051745;28;20224;-71
2023/07/17 04:29:43;;;;;;;4.53;2.73;;;16.50;99.90;;;;;;5070200;28;20669;-71
2023/07/17 04:32:09;;;;;;;2.60;2.40;;;16.50;99.90;;;;;;5071252;28;20507;-71
2023/07/17 04:34:34;;;;;;;4.70;2.60;;;16.60;99.90;;;;;;5071665;28;20200;-71
2023/07/17 04:37:00;;;;;;;5.37;2.30;;;16.60;99.90;;;;;;5071327;28;20231;-71
2023/07/17 04:39:26;;;;;;;3.00;2.10;;;16.50;99.90;;;;;;5071512;28;20212;-71
2023/07/17 04:41:52;;;;;;;3.27;2.70;;;16.60;99.90;;;;;;5055760;28;20566;-70
2023/07/17 04:44:18;;;;;;;3.30;2.40;;;16.60;99.90;;;;;;5050601;28;20192;-71
2023/07/17 04:46:44;;;;;;;3.17;2.63;;;16.60;99.90;;;;;;5068050;28;20462;-71
2023/07/17 04:49:10;;;;;;;4.13;2.40;;;16.60;99.90;;;;;;5071561;28;20412;-70
2023/07/17 04:51:35;;;;;;;4.40;2.87;;;16.60;99.90;;;;;;5058033;28;20243;-71
2023/07/17 04:54:01;;;;;;;3.90;2.80;;;16.50;99.90;;;;;;5048342;28;20181;-71
2023/07/17 04:56:27;;;;;;;5.00;2.40;;;16.60;99.90;;;;;;5047803;28;20718;-71
2023/07/17 04:58:53;;;;;;;4.20;2.30;;;16.60;99.90;;;;;;5050533;28;20193;-71
2023/07/17 05:01:19;;;;;;;4.03;2.50;;;16.60;99.90;;;;;;5051476;28;20186;-71
2023/07/17 05:03:44;;;;;;;3.60;3.00;;;16.60;99.90;;;;;;5048692;28;20970;-71
2023/07/17 05:06:10;;;;;;;3.10;2.53;;;16.60;99.90;;;;;;5050370;28;20293;-71
2023/07/17 05:08:36;;;;;;;3.67;2.50;;;16.70;99.90;;;;;;5050456;28;20594;-71
2023/07/17 05:11:02;;;;;;;3.33;2.30;;;16.70;99.90;;;;;;5050685;28;20227;-71
2023/07/17 05:13:28;;;;;;;2.93;2.50;;;16.80;99.90;;;;;;5050264;28;20182;-71
2023/07/17 05:15:54;;;;;;;3.37;2.17;;;16.90;99.90;;;;;;5050741;28;20429;-72
2023/07/17 05:18:20;;;;;;;4.07;2.57;;;16.90;99.90;;;;;;5050169;28;20519;-72
2023/07/17 05:20:47;;;;;;;4.03;2.33;;;17.10;99.90;;;;;;5050301;28;20499;-71
2023/07/17 05:23:14;;;;;;;2.97;2.60;;;17.20;99.90;;;;;;5048822;28;20194;-72
2023/07/17 05:25:41;;;;;;;3.43;2.33;;;17.20;99.90;;;;;;5049878;28;20420;-72
2023/07/17 05:28:07;;;;;;;5.60;2.63;;;17.20;99.90;;;;;;5056645;28;20486;-72
2023/07/17 05:30:33;;;;;;;4.27;2.53;;;17.20;99.90;;;;;;5070288;28;20956;-71
2023/07/17 05:32:59;;;;;;;6.57;2.70;;;17.20;99.90;;;;;;5069987;28;20470;-71
2023/07/17 05:35:25;;;;;;;2.73;2.50;;;17.20;99.90;;;;;;5068514;28;20451;-71
2023/07/17 05:37:50;;;;;;;3.17;2.47;;;17.10;99.90;;;;;;5060670;28;20520;-71
2023/07/17 05:40:16;;;;;;;4.60;2.90;;;17.10;99.90;;;;;;5049488;28;20368;-72
2023/07/17 05:42:42;;;;;;;4.80;3.30;;;17.10;99.90;;;;;;5049183;28;20225;-71
2023/07/17 05:45:09;;;;;;;4.10;2.90;;;17.10;99.90;;;;;;5049557;28;20189;-72
2023/07/17 05:47:36;;;;;;;4.30;2.50;;;17.20;99.90;;;;;;5049529;28;20500;-72
2023/07/17 05:50:02;;;;;;;2.53;2.10;;;17.30;99.90;;;;;;5049595;28;20420;-72
2023/07/17 05:52:28;;;;;;;4.80;2.10;;;17.30;99.90;;;;;;5049419;28;20465;-71
2023/07/17 05:54:53;;;;;;;4.83;3.07;;;17.40;99.90;;;;;;5049472;28;20615;-72
2023/07/17 05:57:19;;;;;;;3.87;2.90;;;17.40;99.90;;;;;;5048534;28;20699;-72
2023/07/17 05:59:44;;;;;;;3.97;2.93;;;17.50;99.90;;;;;;5049544;28;20197;-72
2023/07/17 06:02:10;;;;;;;6.43;3.57;;;17.60;99.90;;;;;;5051279;28;20558;-71
2023/07/17 06:04:36;;;;;;;5.13;3.20;;;17.60;99.90;;;;;;5052814;28;20198;-71
2023/07/17 06:07:03;;;;;;;4.40;3.00;;;17.70;99.90;;;;;;5049286;28;20296;-71
2023/07/17 06:09:29;;;;;;;5.27;3.17;;;17.90;99.90;;;;;;5048632;28;20428;-71
2023/07/17 06:11:55;;;;;;;7.27;3.20;;;18.10;99.90;;;;;;5048868;28;20932;-71
2023/07/17 06:14:20;;;;;;;6.60;3.60;;;18.30;99.90;;;;;;5048628;28;20274;-71
2023/07/17 06:16:46;;;;;;;3.77;2.90;;;18.40;99.90;;;;;;5048892;28;20216;-71
2023/07/17 06:19:12;;;;;;;5.00;3.37;;;18.60;99.90;;;;;;5044802;28;20197;-71
2023/07/17 06:21:37;;;;;;;6.30;4.30;;;18.80;99.90;;;;;;5049070;28;20220;-71
2023/07/17 06:24:06;;;;;;;8.40;3.60;;;18.80;99.90;;;;;;5048674;28;20202;-71
2023/07/17 06:26:32;;;;;;;9.40;4.90;;;18.60;99.90;;;;;;5048537;28;20213;-71
2023/07/17 06:28:57;;;;;;;8.43;4.87;;;18.60;99.90;;;;;;5049129;28;20432;-71
2023/07/17 06:31:23;;;;;;;7.60;4.57;;;18.60;99.90;;;;;;5049273;28;20173;-72
2023/07/17 06:33:49;;;;;;;5.90;4.00;;;18.90;99.90;;;;;;5048425;28;20185;-72
2023/07/17 06:36:15;;;;;;;6.60;4.53;;;19.10;99.90;;;;;;5048564;28;20237;-72
2023/07/17 06:38:40;;;;;;;6.30;4.17;;;19.30;99.90;;;;;;5049041;28;20178;-71
2023/07/17 06:41:06;;;;;;;5.93;3.90;;;19.40;99.90;;;;;;5044365;28;20428;-72
2023/07/17 06:43:32;;;;;;;6.33;3.97;;;19.40;99.90;;;;;;5044100;28;20560;-72
2023/07/17 06:45:57;;;;;;;7.13;4.20;;;19.60;99.90;;;;;;5047029;28;20202;-72
2023/07/17 06:48:23;;;;;;;5.73;3.90;;;19.70;99.90;;;;;;5046590;28;20205;-71
2023/07/17 06:50:49;;;;;;;5.50;4.07;;;19.80;99.90;;;;;;5048723;28;20174;-71
2023/07/17 06:53:14;;;;;;;5.90;4.40;;;19.70;99.90;;;;;;5048632;28;20712;-72
2023/07/17 06:55:40;;;;;;;5.87;3.90;;;19.70;99.90;;;;;;5047748;28;20209;-72
2023/07/17 06:58:07;;;;;;;5.13;4.20;;;20.00;99.90;;;;;;5048787;28;20251;-72
2023/07/17 07:00:32;;;;;;;8.23;4.70;;;20.20;99.90;;;;;;5048524;28;20259;-71
2023/07/17 07:02:58;;;;;;;7.97;4.13;;;20.20;99.90;;;;;;5046891;28;20976;-72
2023/07/17 07:05:24;;;;;;;7.40;4.87;;;20.30;99.90;;;;;;5048414;28;20181;-72
2023/07/17 07:07:49;;;;;;;10.67;5.20;;;20.40;99.90;;;;;;5048444;28;20643;-72
2023/07/17 07:10:16;;;;;;;7.90;4.87;;;20.40;99.90;;;;;;5048479;28;20174;-72
2023/07/17 07:12:41;;;;;;;7.20;5.40;;;20.50;99.90;;;;;;5048239;28;20219;-72
2023/07/17 07:15:08;;;;;;;5.73;4.73;;;20.20;99.90;;;;;;5047060;28;20419;-72
2023/07/17 07:17:33;;;;;;;7.67;5.37;;;20.20;99.90;;;;;;5047891;28;20198;-72
2023/07/17 07:19:59;;;;;;;10.43;5.03;;;20.20;99.90;;;;;;5047696;28;20985;-71
2023/07/17 07:22:25;;;;;;;7.37;4.57;;;20.10;99.90;;;;;;5047586;28;20190;-71
2023/07/17 07:24:50;;;;;;;8.73;5.70;;;20.10;99.90;;;;;;5046877;28;20674;-72
2023/07/17 07:27:16;;;;;;;6.83;5.60;;;20.10;99.90;;;;;;5048537;28;20850;-72
2023/07/17 07:29:42;;;;;;;10.43;5.70;;;20.20;99.90;;;;;;5068251;28;20634;-72
2023/07/17 07:32:08;;;;;;;7.37;5.33;;;20.30;99.90;;;;;;5068075;28;20185;-72
2023/07/17 07:34:33;;;;;;;7.30;4.67;;;20.20;99.90;;;;;;5068781;28;20196;-71
2023/07/17 07:36:59;;;;;;;11.80;5.60;;;20.30;99.90;;;;;;5068413;28;20919;-71
2023/07/17 07:39:25;;;;;;;7.77;5.50;;;20.40;99.90;;;;;;5068201;28;20689;-71
2023/07/17 07:41:50;;;;;;;6.20;4.70;;;20.40;99.90;;;;;;5067303;28;20177;-71
2023/07/17 07:44:16;;;;;;;6.87;5.10;;;20.40;99.90;;;;;;5053927;28;20211;-71
2023/07/17 07:46:42;;;;;;;10.93;5.70;;;20.40;99.90;;;;;;5048062;28;20208;-72
2023/07/17 07:49:07;;;;;;;8.37;5.50;;;20.20;99.90;;;;;;5048510;28;20204;-71
2023/07/17 07:51:33;;;;;;;8.37;4.70;;;20.20;99.90;;;;;;5048374;28;20174;-71
2023/07/17 07:53:59;;;;;;;8.37;4.83;;;20.20;99.90;;;;;;5046612;28;20184;-71
2023/07/17 07:56:24;;;;;;;7.23;4.93;;;20.30;99.90;;;;;;5048005;28;20697;-71
2023/07/17 07:58:50;;;;;;;11.10;5.30;;;20.30;99.90;;;;;;5048160;28;20225;-71
2023/07/17 08:01:16;;;;;;;7.10;4.90;;;20.30;99.90;;;;;;5051648;28;20209;-70
2023/07/17 08:03:41;;;;;;;5.77;4.53;;;20.30;99.90;;;;;;5051659;28;20178;-71
2023/07/17 08:06:07;;;;;;;5.90;3.43;;;20.20;99.90;;;;;;5051634;28;20201;-70
2023/07/17 08:08:33;;;;;;;8.10;4.67;;;20.30;99.90;;;;;;5051850;28;20182;-70
2023/07/17 08:10:59;;;;;;;7.10;4.90;;;20.30;99.90;;;;;;5051920;28;20773;-71
2023/07/17 08:13:24;;;;;;;5.97;4.00;;;20.30;99.90;;;;;;5051401;28;20173;-71
2023/07/17 08:15:50;;;;;;;10.47;5.40;;;20.30;99.90;;;;;;5051397;28;20225;-71
2023/07/17 08:18:16;;;;;;;13.80;4.50;;;20.40;99.90;;;;;;5051772;28;20185;-71
2023/07/17 08:20:42;;;;;;;6.63;3.83;;;20.40;99.90;;;;;;5051442;28;20190;-70
2023/07/17 08:23:08;;;;;;;7.47;4.30;;;20.40;99.90;;;;;;5049921;28;20416;-71
2023/07/17 08:25:33;;;;;;;6.77;3.73;;;20.40;99.90;;;;;;5051224;28;20178;-71
2023/07/17 08:27:59;;;;;;;5.87;4.80;;;20.50;99.90;;;;;;5051295;28;20709;-70
2023/07/17 08:30:25;;;;;;;7.10;4.50;;;20.50;99.90;;;;;;5051616;28;20256;-71
2023/07/17 08:32:50;;;;;;;8.53;3.40;;;20.50;99.90;;;;;;5051109;28;20182;-71
2023/07/17 08:35:16;;;;;;;6.63;4.43;;;20.50;99.90;;;;;;5051103;28;20182;-71
2023/07/17 08:37:42;;;;;;;5.93;4.30;;;20.40;99.90;;;;;;5051358;28;20599;-71
2023/07/17 08:40:10;;;;;;;5.33;3.60;;;20.40;99.90;;;;;;5051355;28;20972;-71
2023/07/17 08:42:37;;;;;;;6.77;4.40;;;20.40;99.90;;;;;;5049666;28;20186;-71
2023/07/17 08:45:04;;;;;;;6.73;3.93;;;20.50;99.90;;;;;;5051008;28;20986;-70
2023/07/17 08:47:31;;;;;;;5.33;4.10;;;20.60;99.90;;;;;;5050846;28;20463;-71
2023/07/17 08:49:58;;;;;;;5.00;3.70;;;20.70;99.90;;;;;;5050965;28;20404;-70
2023/07/17 08:52:27;;;;;;;5.43;4.70;;;20.70;99.90;;;;;;5050573;28;20408;-71
2023/07/17 08:54:53;;;;;;;6.93;4.30;;;20.70;99.90;;;;;;5050688;28;20466;-71
2023/07/17 08:57:19;;;;;;;5.83;4.07;;;20.80;99.90;;;;;;5050929;28;20476;-71
2023/07/17 08:59:45;;;;;;;6.43;3.87;;;20.80;99.90;;;;;;5049659;28;20192;-71
2023/07/17 09:02:11;;;;;;;6.30;3.70;;;20.80;99.90;;;;;;5050446;28;20404;-71
2023/07/17 09:04:36;;;;;;;5.90;4.43;;;20.70;99.90;;;;;;5050780;28;20182;-70
2023/07/17 09:07:03;;;;;;;7.90;4.10;;;20.60;99.90;;;;;;5050307;28;20294;-71
2023/07/17 09:09:29;;;;;;;4.83;3.60;;;20.60;99.90;;;;;;5050763;28;20259;-71
2023/07/17 09:12:12;;;;;;;11.77;4.50;;;20.70;99.90;;;;;;5049556;28;20473;-71
2023/07/17 09:14:39;;;;;;;5.30;3.30;;;20.90;99.90;;;;;;5050394;28;20716;-71
2023/07/17 09:17:07;;;;;;;5.07;3.50;;;20.90;99.90;;;;;;5050539;28;20940;-70
2023/07/17 09:19:34;;;;;;;6.43;3.90;;;20.90;99.90;;;;;;5050592;28;20921;-70
2023/07/17 09:22:06;;;;;;;11.63;3.80;;;21.00;99.90;;;;;;5050281;28;20419;-71
2023/07/17 09:24:38;;;;;;;7.60;3.43;;;21.20;99.90;;;;;;5050344;28;20462;-70
2023/07/17 09:27:08;;;;;;;7.10;4.23;;;21.20;99.90;;;;;;5050204;28;20503;-70
2023/07/17 09:29:40;;;;;;;5.17;4.03;;;21.30;99.90;;;;;;5050292;28;20424;-71
2023/07/17 09:32:18;;;;;;;6.27;4.10;;;21.30;99.90;;;;;;5049962;28;20439;-71
2023/07/17 09:35:02;;;;;;;5.57;3.73;;;21.40;99.90;;;;;;5050100;28;20944;-71
2023/07/17 09:37:32;;;;;;;6.57;3.80;;;21.20;99.50;;;;;;5049972;28;20494;-71
2023/07/17 09:39:59;;;;;;;5.40;3.83;;;21.00;99.90;;;;;;5050539;28;20928;-71
2023/07/17 09:42:25;;;;;;;7.33;3.73;;;21.10;99.90;;;;;;5049842;28;20495;-71
2023/07/17 09:44:51;;;;;;;5.97;4.30;;;21.20;99.90;;;;;;5049787;28;20507;-71
2023/07/17 09:47:20;;;;;;;5.43;3.93;;;21.40;99.90;;;;;;5049679;28;20218;-71
2023/07/17 09:49:50;;;;;;;4.10;3.57;;;21.60;99.10;;;;;;5049929;28;20419;-71
2023/07/17 09:52:17;;;;;;;6.90;4.33;;;21.70;98.00;;;;;;5049633;28;20412;-71
2023/07/17 09:54:44;;;;;;;4.97;3.53;;;21.70;99.20;;;;;;5049612;28;20490;-71
2023/07/17 09:57:27;;;;;;;4.53;3.70;;;21.90;99.20;;;;;;5049101;28;20458;-71
2023/07/17 09:59:56;;;;;;;5.53;3.03;;;22.00;97.70;;;;;;5049566;28;20420;-71
2023/07/17 10:02:28;;;;;;;5.97;4.00;;;22.10;98.10;;;;;;5049290;28;20491;-71
2023/07/17 10:04:58;;;;;;;4.53;3.40;;;22.20;98.40;;;;;;5049488;28;20416;-71
2023/07/17 10:07:24;;;;;;;7.07;3.83;;;22.20;98.70;;;;;;5049324;28;20464;-71
2023/07/17 10:09:50;;;;;;;7.90;3.60;;;22.20;98.10;;;;;;5048373;28;20436;-71
2023/07/17 10:12:17;;;;;;;4.97;3.30;;;22.20;97.50;;;;;;5049152;28;20495;-71
2023/07/17 10:14:44;;;;;;;4.70;3.27;;;22.30;97.30;;;;;;5049373;28;20507;-71
2023/07/17 10:17:31;;;;;;;4.10;2.97;;;22.50;97.20;;;;;;5049312;28;20432;-71
2023/07/17 10:19:59;;;;;;;4.53;3.77;;;22.60;97.20;;;;;;5049275;28;20468;-71
2023/07/17 10:22:44;;;;;;;5.43;3.00;;;22.50;96.80;;;;;;5048684;28;20412;-71
2023/07/17 10:25:19;;;;;;;6.87;3.50;;;22.70;97.00;;;;;;5049132;28;20470;-71
2023/07/17 10:28:05;;;;;;;3.57;3.00;;;22.80;97.80;;;;;;5048903;28;20452;-71
2023/07/17 10:30:35;;;;;;;5.10;3.37;;;22.90;97.70;;;;;;5049200;28;20833;-71
2023/07/17 10:33:13;;;;;;;5.43;3.60;;;22.80;96.80;;;;;;5048890;28;20478;-71
2023/07/17 10:35:49;;;;;;;6.20;3.30;;;22.40;96.20;;;;;;5044898;28;20408;-71
2023/07/17 10:38:26;;;;;;;7.40;3.27;;;22.30;97.70;;;;;;5045533;28;20436;-71
2023/07/17 10:41:14;;;;;;;5.60;3.10;;;22.10;97.40;;;;;;5043609;28;20698;-71
2023/07/17 10:43:56;;;;;;;6.23;3.50;;;21.90;97.40;;;;;;5048535;28;20511;-71
2023/07/17 10:46:27;;;;;;;4.57;3.30;;;21.70;97.70;;;;;;5047964;28;20447;-72
2023/07/17 10:48:54;;;;;;;4.53;3.00;;;22.00;98.40;;;;;;5048583;28;20431;-72
2023/07/17 10:51:25;;;;;;;6.53;3.77;;;22.20;98.00;;;;;;5048569;28;20665;-72
2023/07/17 10:53:55;;;;;;;3.83;2.80;;;22.30;97.30;;;;;;5048056;28;20428;-72
2023/07/17 10:56:21;;;;;;;4.63;3.40;;;22.40;97.10;;;;;;5047580;28;20436;-71
2023/07/17 10:58:50;;;;;;;4.60;3.00;;;22.30;96.60;;;;;;5048505;28;20502;-72
2023/07/17 11:01:16;;;;;;;4.33;3.03;;;22.20;96.10;;;;;;5048519;28;20455;-71
2023/07/17 11:03:48;;;;;;;4.80;3.40;;;22.30;96.40;;;;;;5048000;28;20478;-72
2023/07/17 11:06:18;;;;;;;8.00;3.93;;;22.30;96.20;;;;;;5047980;28;20298;-72
2023/07/17 11:08:50;;;;;;;6.93;3.40;;;22.20;95.80;;;;;;5048182;28;20442;-72
2023/07/17 11:11:17;;;;;;;5.13;3.10;;;22.20;96.60;;;;;;5030347;28;20507;-72
2023/07/17 11:13:46;;;;;;;4.70;3.17;;;22.00;96.70;;;;;;5047773;28;20432;-71
2023/07/17 11:16:13;;;;;;;5.23;3.17;;;22.00;97.10;;;;;;5047086;28;20432;-72
2023/07/17 11:18:47;;;;;;;4.00;3.47;;;21.90;97.50;;;;;;5046803;28;20762;-72
2023/07/17 11:21:14;;;;;;;6.40;3.63;;;22.00;97.20;;;;;;5046791;28;20780;-72
2023/07/17 11:23:54;;;;;;;6.30;3.33;;;21.90;97.40;;;;;;5047768;28;20794;-72
2023/07/17 11:26:28;;;;;;;5.70;3.60;;;21.90;97.10;;;;;;5046906;28;21622;-72
2023/07/17 11:28:55;;;;;;;7.00;4.37;;;22.00;97.60;;;;;;5053237;28;20424;-71
2023/07/17 11:31:28;;;;;;;4.40;4.00;;;22.00;97.60;;;;;;5047822;28;20417;-72
2023/07/17 11:33:59;;;;;;;9.70;4.50;;;22.00;97.40;;;;;;5048135;28;20470;-72
2023/07/17 11:36:27;;;;;;;6.37;3.87;;;22.00;97.40;;;;;;5061499;28;20440;-72
2023/07/17 11:38:57;;;;;;;4.93;3.53;;;22.00;97.70;;;;;;5054451;28;20493;-72
2023/07/17 11:41:24;;;;;;;5.63;3.57;;;22.10;97.90;;;;;;5053424;28;20817;-72
2023/07/17 11:43:57;;;;;;;6.80;3.83;;;22.20;97.90;;;;;;5054028;28;20412;-71
2023/07/17 11:46:25;;;;;;;4.77;3.43;;;22.20;96.70;;;;;;5054120;28;20485;-72
2023/07/17 11:48:54;;;;;;;7.20;3.40;;;22.10;96.80;;;;;;5054477;28;20420;-72
2023/07/17 11:51:24;;;;;;;6.60;3.90;;;22.10;97.10;;;;;;5054502;28;20420;-72
2023/07/17 11:53:54;;;;;;;4.83;3.63;;;22.10;97.70;;;;;;5053866;28;20442;-72
2023/07/17 11:56:21;;;;;;;6.17;4.23;;;22.20;98.00;;;;;;5053395;28;20443;-72
2023/07/17 11:58:52;;;;;;;5.60;4.23;;;22.30;97.30;;;;;;5054350;28;20469;-72
2023/07/17 12:01:17;;;;;;;7.47;3.83;;;22.40;97.70;;;;;;5054708;28;20948;-72
2023/07/17 12:03:43;;;;;;;10.13;4.40;;;22.50;97.00;;;;;;5054094;28;20424;-72
2023/07/17 12:06:09;;;;;;;7.00;4.47;;;22.60;97.00;;;;;;5053886;28;20667;-72
2023/07/17 12:08:37;;;;;;;7.97;4.00;;;22.60;96.10;;;;;;5054107;28;20589;-72
2023/07/17 12:11:02;;;;;;;4.40;3.57;;;22.70;96.00;;;;;;5054335;28;20170;-72
2023/07/17 12:13:28;;;;;;;4.03;3.10;;;22.80;96.10;;;;;;5053840;28;20422;-72
2023/07/17 12:15:54;;;;;;;7.40;4.10;;;22.80;95.30;;;;;;5053913;28;20216;-72
2023/07/17 12:18:20;;;;;;;6.90;4.20;;;22.80;96.00;;;;;;5054132;28;20428;-72
2023/07/17 12:20:45;;;;;;;4.80;3.63;;;23.00;96.00;;;;;;5054455;28;20185;-72
2023/07/17 12:23:12;;;;;;;6.20;4.17;;;23.20;95.30;;;;;;5053832;28;20512;-72
2023/07/17 12:25:41;;;;;;;6.57;4.20;;;23.10;94.20;;;;;;5053722;28;20201;-72
2023/07/17 12:28:07;;;;;;;5.63;3.87;;;23.00;94.70;;;;;;5056244;28;21018;-72
2023/07/17 12:30:33;;;;;;;6.23;3.60;;;22.80;94.50;;;;;;5054254;28;20577;-72
2023/07/17 12:32:58;;;;;;;6.23;4.13;;;22.60;94.50;;;;;;5053832;28;20182;-72
2023/07/17 12:35:24;;;;;;;8.93;4.30;;;22.60;95.00;;;;;;5052491;28;20174;-71
2023/07/17 12:37:50;;;;;;;6.47;4.23;;;22.60;95.60;;;;;;5053854;28;20209;-72
2023/07/17 12:40:16;;;;;;;6.80;4.00;;;22.50;95.60;;;;;;5052777;28;20186;-72
2023/07/17 12:42:41;;;;;;;7.17;4.70;;;22.60;96.10;;;;;;5053837;28;20190;-72
2023/07/17 12:45:08;;;;;;;8.13;5.10;;;22.60;95.70;;;;;;5053493;28;20193;-72